Home > Products > Valid Products > TAF

000
FTUS44 KAMA 030201 AAA
TAFDHT
TAF AMD
KDHT 030201Z 0302/0324 17011KT P6SM FEW150 SCT250
     FM031500 20016G24KT P6SM SCT200=



000
FTUS44 KAMA 022344
TAFAMA
TAF
KAMA 022344Z 0300/0324 17020KT P6SM FEW250
     FM030200 18011KT P6SM FEW150 SCT250
     FM031500 20017KT P6SM SCT200=



000
FTUS44 KAMA 022344
TAFGUY
TAF
KGUY 022344Z 0300/0324 18015KT P6SM BKN250
     FM030200 19010KT P6SM SCT200
     FM031500 20016G24KT P6SM SCT200=



000
FTUS44 KAMA 022344
TAFDHT
TAF
KDHT 022344Z 0300/0324 18012G20KT P6SM SCT150
     FM030200 20010KT P6SM FEW150 SCT250
     FM031500 20016G24KT P6SM SCT200=



000
FTUS44 KAMA 022344
TAFDHT
TAF
KDHT 022344Z 0300/0324 18012G20KT P6SM SCT150
     FM030200 20010KT P6SM FEW150 SCT250
     FM031500 20016G24KT P6SM SCT200=



000
FTUS44 KAMA 022344
TAFGUY
TAF
KGUY 022344Z 0300/0324 18015KT P6SM BKN250
     FM030200 19010KT P6SM SCT200
     FM031500 20016G24KT P6SM SCT200=



000
FTUS44 KAMA 022344
TAFAMA
TAF
KAMA 022344Z 0300/0324 17020KT P6SM FEW250
     FM030200 18011KT P6SM FEW150 SCT250
     FM031500 20017KT P6SM SCT200=



000
FTUS44 KAMA 021936 AAA
TAFGUY
TAF AMD
KGUY 021936Z 0220/0318 20015G25KT P6SM FEW200
     FM030100 17015KT P6SM SCT200
     FM031500 20016KT P6SM FEW200=



000
FTUS44 KAMA 021935 AAA
TAFAMA
TAF AMD
KAMA 021935Z 0220/0318 20015G25KT P6SM FEW200
     FM030100 17010KT P6SM SCT200
     FM031500 20015KT P6SM FEW200=



000
FTUS44 KAMA 021720
TAFDHT
TAF
KDHT 021720Z 0218/0318 21016G25KT P6SM FEW090
     FM030100 17015KT P6SM SCT200
     FM031500 20015KT P6SM FEW200=



000
FTUS44 KAMA 021720
TAFAMA
TAF
KAMA 021720Z 0218/0318 21015G25KT P6SM FEW200
     FM030100 17010KT P6SM SCT200
     FM031500 20015KT P6SM FEW200=



000
FTUS44 KAMA 021720
TAFDHT
TAF
KDHT 021720Z 0218/0318 21016G25KT P6SM FEW090
     FM030100 17015KT P6SM SCT200
     FM031500 20015KT P6SM FEW200=



000
FTUS44 KAMA 021720
TAFAMA
TAF
KAMA 021720Z 0218/0318 21015G25KT P6SM FEW200
     FM030100 17010KT P6SM SCT200
     FM031500 20015KT P6SM FEW200=



000
FTUS44 KAMA 021720
TAFGUY
TAF
KGUY 021720Z 0218/0318 21015G25KT P6SM FEW200
     FM030100 17015KT P6SM SCT200
     FM031500 20016KT P6SM FEW200=



000
FTUS44 KAMA 021720
TAFGUY
TAF
KGUY 021720Z 0218/0318 21015G25KT P6SM FEW200
     FM030100 17015KT P6SM SCT200
     FM031500 20016KT P6SM FEW200=



000
FTUS44 KAMA 021120
TAFDHT
TAF
KDHT 021120Z 0212/0312 21014KT P6SM SCT200
     FM021600 21016G25KT P6SM FEW090
     FM030100 17015KT P6SM SCT200=



000
FTUS44 KAMA 021120
TAFAMA
TAF
KAMA 021120Z 0212/0312 19010KT P6SM FEW100
     FM021400 19017G25KT P6SM FEW200
     FM030100 17010KT P6SM FEW200=



000
FTUS44 KAMA 021120
TAFAMA
TAF
KAMA 021120Z 0212/0312 19010KT P6SM FEW100
     FM021400 19017G25KT P6SM FEW200
     FM030100 17010KT P6SM FEW200=



000
FTUS44 KAMA 021120
TAFDHT
TAF
KDHT 021120Z 0212/0312 21014KT P6SM SCT200
     FM021600 21016G25KT P6SM FEW090
     FM030100 17015KT P6SM SCT200=



000
FTUS44 KAMA 021120
TAFGUY
TAF
KGUY 021120Z 0212/0312 20008KT P6SM FEW200
     FM021500 21015G25KT P6SM FEW200
     FM030100 17015KT P6SM SCT200=



000
FTUS44 KAMA 021120
TAFGUY
TAF
KGUY 021120Z 0212/0312 20008KT P6SM FEW200
     FM021500 21015G25KT P6SM FEW200
     FM030100 17015KT P6SM SCT200=



000
FTUS44 KAMA 021006 AAA
TAFGUY
TAF AMD
KGUY 021006Z 0210/0306 18008KT P6SM FEW100
     FM021400 19015G22KT P6SM FEW200
     FM030100 17015KT P6SM SCT200=



000
FTUS44 KAMA 020520
TAFDHT
TAF
KDHT 020520Z 0206/0306 16009KT P6SM SCT100
     FM021400 21014G21KT P6SM FEW200
     FM030100 16015KT P6SM SCT200=



000
FTUS44 KAMA 020520
TAFAMA
TAF
KAMA 020520Z 0206/0306 18010KT P6SM FEW100
     FM021400 19017G25KT P6SM FEW200
     FM030100 17010KT P6SM FEW200=



000
FTUS44 KAMA 020520
TAFGUY
TAF
KGUY 020520Z 0206/0306 23012KT P6SM FEW100
     FM021400 19015G22KT P6SM FEW200
     FM030100 17015KT P6SM SCT200=



000
FTUS44 KAMA 020520
TAFDHT
TAF
KDHT 020520Z 0206/0306 16009KT P6SM SCT100
     FM021400 21014G21KT P6SM FEW200
     FM030100 16015KT P6SM SCT200=



000
FTUS44 KAMA 020520
TAFAMA
TAF
KAMA 020520Z 0206/0306 18010KT P6SM FEW100
     FM021400 19017G25KT P6SM FEW200
     FM030100 17010KT P6SM FEW200=



000
FTUS44 KAMA 020520
TAFGUY
TAF
KGUY 020520Z 0206/0306 23012KT P6SM FEW100
     FM021400 19015G22KT P6SM FEW200
     FM030100 17015KT P6SM SCT200=



000
FTUS44 KAMA 020243 AAB
TAFDHT
TAF AMD
KDHT 020243Z 0203/0224 12009KT P6SM SCT120
     FM021400 21014G21KT P6SM FEW200=



000
FTUS44 KAMA 020023 AAA
TAFDHT
TAF AMD
KDHT 020023Z 0200/0224 17017G26KT P6SM FEW090
      TEMPO 0201/0203 32020G30KT P6SM -TSRA SCT050CB OVC100
     FM020300 18012KT P6SM SCT120
     FM021400 21014G21KT P6SM FEW200=



000
FTUS44 KAMA 012320
TAFGUY
TAF
KGUY 012320Z 0200/0224 19017G26KT P6SM SCT080
     FM020100 18012KT P6SM SCT150
     FM021400 19015G22KT P6SM FEW200=



000
FTUS44 KAMA 012320
TAFDHT
TAF
KDHT 012320Z 0200/0224 19017G26KT P6SM FEW090
     FM020100 18012KT P6SM SCT120
     FM021400 21014G21KT P6SM FEW200=



000
FTUS44 KAMA 012320
TAFAMA
TAF
KAMA 012320Z 0200/0224 19018G25KT P6SM SKC
     FM020100 18013KT P6SM FEW120
     FM021400 19017G25KT P6SM FEW200=



000
FTUS44 KAMA 011916 AAA
TAFGUY
TAF AMD
KGUY 011916Z 0119/0218 19014G24KT P6SM SCT080
     FM020100 18012KT P6SM SCT150
     FM021400 20014KT P6SM FEW200=



000
FTUS44 KAMA 011915 AAA
TAFDHT
TAF AMD
KDHT 011915Z 0119/0218 20016G25KT P6SM SCT090
     FM020100 18012KT P6SM SCT120
     FM021400 21014KT P6SM FEW200=



000
FTUS44 KAMA 011720
TAFGUY
TAF
KGUY 011720Z 0118/0218 19009KT P6SM FEW200
     FM012000 19014G24KT P6SM SCT080
     FM020100 18012KT P6SM SCT150
     FM021400 20014KT P6SM FEW200=



000
FTUS44 KAMA 011720
TAFDHT
TAF
KDHT 011720Z 0118/0218 19011KT P6SM FEW200
     FM012000 20016G25KT P6SM SCT090
     FM020100 18012KT P6SM SCT120
     FM021400 21014KT P6SM FEW200=



000
FTUS44 KAMA 011720
TAFAMA
TAF
KAMA 011720Z 0118/0218 18018G28KT P6SM FEW070
     FM020100 17014KT P6SM FEW120
     FM021400 20015G25KT P6SM FEW200=



000
FTUS44 KAMA 011720
TAFAMA
TAF
KAMA 011720Z 0118/0218 18018G28KT P6SM FEW070
     FM020100 17014KT P6SM FEW120
     FM021400 20015G25KT P6SM FEW200=



000
FTUS44 KAMA 011720
TAFGUY
TAF
KGUY 011720Z 0118/0218 19009KT P6SM FEW200
     FM012000 19014G24KT P6SM SCT080
     FM020100 18012KT P6SM SCT150
     FM021400 20014KT P6SM FEW200=



000
FTUS44 KAMA 011720
TAFDHT
TAF
KDHT 011720Z 0118/0218 19011KT P6SM FEW200
     FM012000 20016G25KT P6SM SCT090
     FM020100 18012KT P6SM SCT120
     FM021400 21014KT P6SM FEW200=



000
FTUS44 KAMA 011510 AAA
TAFGUY
TAF AMD
KGUY 011510Z 0115/0212 18008KT P6SM FEW200
     FM011600 19016G27KT P6SM FEW200
     FM020100 17012KT P6SM BKN150=



000
FTUS44 KAMA 011510 AAA
TAFGUY
TAF AMD
KGUY 011510Z 0115/0212 18008KT P6SM FEW200
     FM011600 19016G27KT P6SM FEW200
     FM020100 17012KT P6SM BKN150=



000
FTUS44 KAMA 011120
TAFAMA
TAF
KAMA 011120Z 0112/0212 17012KT P6SM SKC
     FM011500 19017G27KT P6SM FEW250
     FM020100 17012KT P6SM SCT120=



000
FTUS44 KAMA 011120
TAFAMA
TAF
KAMA 011120Z 0112/0212 17012KT P6SM SKC
     FM011500 19017G27KT P6SM FEW250
     FM020100 17012KT P6SM SCT120=



000
FTUS44 KAMA 011120
TAFGUY
TAF
KGUY 011120Z 0112/0212 18008KT P6SM FEW250
     FM011500 19016G27KT P6SM FEW250
     FM020100 17012KT P6SM BKN150=



000
FTUS44 KAMA 011120
TAFGUY
TAF
KGUY 011120Z 0112/0212 18008KT P6SM FEW250
     FM011500 19016G27KT P6SM FEW250
     FM020100 17012KT P6SM BKN150=



000
FTUS44 KAMA 011120
TAFDHT
TAF
KDHT 011120Z 0112/0212 18008KT P6SM FEW250
     FM011700 20016G25KT P6SM SCT090
     FM020100 17013KT P6SM OVC100=



000
FTUS44 KAMA 011120
TAFDHT
TAF
KDHT 011120Z 0112/0212 18008KT P6SM FEW250
     FM011700 20016G25KT P6SM SCT090
     FM020100 17013KT P6SM OVC100=



000
FTUS44 KAMA 010520
TAFGUY
TAF
KGUY 010520Z 0106/0206 18008KT P6SM BKN250
     FM011600 19016G25KT P6SM FEW250
     FM020100 17010KT P6SM BKN250=



000
FTUS44 KAMA 010520
TAFAMA
TAF
KAMA 010520Z 0106/0206 17010KT P6SM SKC
     FM011500 19016G25KT P6SM FEW250
     FM020100 16013KT P6SM SCT250=



000
FTUS44 KAMA 010520
TAFDHT
TAF
KDHT 010520Z 0106/0206 18008KT P6SM SCT100
     FM011600 20014G23KT P6SM FEW250
     FM020100 17012KT P6SM BKN100=



000
FTUS44 KAMA 010520
TAFGUY
TAF
KGUY 010520Z 0106/0206 18008KT P6SM BKN250
     FM011600 19016G25KT P6SM FEW250
     FM020100 17010KT P6SM BKN250=



000
FTUS44 KAMA 010520
TAFAMA
TAF
KAMA 010520Z 0106/0206 17010KT P6SM SKC
     FM011500 19016G25KT P6SM FEW250
     FM020100 16013KT P6SM SCT250=



000
FTUS44 KAMA 010520
TAFDHT
TAF
KDHT 010520Z 0106/0206 18008KT P6SM SCT100
     FM011600 20014G23KT P6SM FEW250
     FM020100 17012KT P6SM BKN100=



000
FTUS44 KAMA 312320
TAFGUY
TAF
KGUY 312320Z 0100/0124 18010KT P6SM BKN250
     FM011600 19016G25KT P6SM FEW250=



000
FTUS44 KAMA 312320
TAFDHT
TAF
KDHT 312320Z 0100/0124 18008KT P6SM SCT100
     FM011600 20014G23KT P6SM FEW250=



000
FTUS44 KAMA 312320
TAFAMA
TAF
KAMA 312320Z 0100/0124 17010KT P6SM SKC
     FM011500 19016G25KT P6SM FEW250=



000
FTUS44 KAMA 311720
TAFGUY
TAF
KGUY 311720Z 3118/0118 19017G26KT P6SM SKC
     FM010000 16011KT P6SM SCT100
     FM011500 20014G24KT P6SM SCT080=



000
FTUS44 KAMA 311720
TAFAMA
TAF
KAMA 311720Z 3118/0118 20017G27KT P6SM SKC
     FM010000 16013KT P6SM FEW100
     FM011500 19015G25KT P6SM SCT090=



000
FTUS44 KAMA 311720
TAFDHT
TAF
KDHT 311720Z 3118/0118 19016G25KT P6SM SKC
     FM010000 16008KT P6SM SCT100
     FM011500 20014G24KT P6SM SCT080=



000
FTUS44 KAMA 311720
TAFGUY
TAF
KGUY 311720Z 3118/0118 19017G26KT P6SM SKC
     FM010000 16011KT P6SM SCT100
     FM011500 20014G24KT P6SM SCT080=



000
FTUS44 KAMA 311720
TAFAMA
TAF
KAMA 311720Z 3118/0118 20017G27KT P6SM SKC
     FM010000 16013KT P6SM FEW100
     FM011500 19015G25KT P6SM SCT090=



000
FTUS44 KAMA 311720
TAFDHT
TAF
KDHT 311720Z 3118/0118 19016G25KT P6SM SKC
     FM010000 16008KT P6SM SCT100
     FM011500 20014G24KT P6SM SCT080=



000
FTUS44 KAMA 311120
TAFGUY
TAF
KGUY 311120Z 3112/0112 19009KT P6SM SKC
     FM311600 19017G26KT P6SM SKC
     FM010000 16011KT P6SM SCT100=



000
FTUS44 KAMA 311120
TAFGUY
TAF
KGUY 311120Z 3112/0112 19009KT P6SM SKC
     FM311600 19017G26KT P6SM SKC
     FM010000 16011KT P6SM SCT100=



000
FTUS44 KAMA 311120
TAFDHT
TAF
KDHT 311120Z 3112/0112 18008KT P6SM SKC
     FM311500 19016G25KT P6SM SKC
     FM010000 16008KT P6SM SCT100=



000
FTUS44 KAMA 311120
TAFAMA
TAF
KAMA 311120Z 3112/0112 20011KT P6SM SKC
     FM311600 19018G27KT P6SM SKC
     FM010000 16013KT P6SM FEW100=



000
FTUS44 KAMA 311120
TAFDHT
TAF
KDHT 311120Z 3112/0112 18008KT P6SM SKC
     FM311500 19016G25KT P6SM SKC
     FM010000 16008KT P6SM SCT100=



000
FTUS44 KAMA 311120
TAFAMA
TAF
KAMA 311120Z 3112/0112 20011KT P6SM SKC
     FM311600 19018G27KT P6SM SKC
     FM010000 16013KT P6SM FEW100=



000
FTUS44 KAMA 310959 AAA
TAFDHT
TAF AMD
KDHT 310959Z 3110/0106 18008KT 6SM HZ SKC
     FM311500 20015G23KT P6SM SKC=



000
FTUS44 KAMA 310959 AAA
TAFGUY
TAF AMD
KGUY 310959Z 3110/0106 19008KT 6SM HZ SKC
     FM311600 20015G20KT P6SM SKC=



000
FTUS44 KAMA 310816 AAA
TAFAMA
TAF AMD
KAMA 310816Z 3108/0106 17007KT 6SM HZ SKC
     FM311500 21015G25KT P6SM SKC=



000
FTUS44 KAMA 310816 AAA
TAFAMA
TAF AMD
KAMA 310816Z 3108/0106 17007KT 6SM HZ SKC
     FM311500 21015G25KT P6SM SKC=



000
FTUS44 KAMA 310520
TAFDHT
TAF
KDHT 310520Z 3106/0106 17008KT 6SM HZ SKC
      TEMPO 3106/3110 5SM HZ
     FM311500 20015G23KT P6SM SKC=



000
FTUS44 KAMA 310520
TAFDHT
TAF
KDHT 310520Z 3106/0106 17008KT 6SM HZ SKC
      TEMPO 3106/3110 5SM HZ
     FM311500 20015G23KT P6SM SKC=



000
FTUS44 KAMA 310520
TAFAMA
TAF
KAMA 310520Z 3106/0106 17007KT 6SM HZ SKC
      TEMPO 3108/3112 5SM HZ
     FM311500 21015G25KT P6SM SKC=



000
FTUS44 KAMA 310520
TAFGUY
TAF
KGUY 310520Z 3106/0106 17008KT 6SM HZ SKC
      TEMPO 3106/3110 5SM HZ
     FM311600 20015G20KT P6SM SKC=



000
FTUS44 KAMA 310520
TAFGUY
TAF
KGUY 310520Z 3106/0106 17008KT 6SM HZ SKC
      TEMPO 3106/3110 5SM HZ
     FM311600 20015G20KT P6SM SKC=



000
FTUS44 KAMA 310520
TAFAMA
TAF
KAMA 310520Z 3106/0106 17007KT 6SM HZ SKC
      TEMPO 3108/3112 5SM HZ
     FM311500 21015G25KT P6SM SKC=



    US Dept of Commerce
    National Oceanic and Atmospheric Administration
    National Weather Service
    1325 East West Highway
    Silver Spring, MD 20910
    Page Author: NWS Internet Services Team
Disclaimer
Information Quality
Credits
Glossary
Privacy Policy
Freedom of Information Act (FOIA)
About Us
Career Opportunities